createdAt,value
2023-01-19T00:00:21.117Z,98505.66
2023-01-19T00:05:24.029Z,98510.59
2023-01-19T00:10:27.209Z,98499.88
2023-01-19T00:15:30.339Z,98484.59
2023-01-19T00:20:33.502Z,98489.75
2023-01-19T00:25:37.379Z,98481.31
2023-01-19T00:30:41.196Z,98476.56
2023-01-19T00:35:44.593Z,98473.69
2023-01-19T00:40:48.547Z,98453.47
2023-01-19T00:45:51.848Z,98462.34
2023-01-19T00:50:54.848Z,98469.13
2023-01-19T00:55:58.593Z,98453.03
2023-01-19T01:01:01.861Z,98454.09
2023-01-19T01:06:06.079Z,98454.72
2023-01-19T01:11:10.645Z,98448.94
2023-01-19T01:16:16.098Z,98451.59
2023-01-19T01:21:19.273Z,98448.69
2023-01-19T01:26:22.694Z,98442.94
2023-01-19T01:31:25.637Z,98443.53
2023-01-19T01:36:29.554Z,98443.31
2023-01-19T01:41:32.973Z,98440.66
2023-01-19T01:46:36.560Z,98429.31
2023-01-19T01:51:44.170Z,98438.41
2023-01-19T01:56:50.139Z,98427.50
2023-01-19T02:01:57.407Z,98420.25
2023-01-19T02:07:01.385Z,98411.59
2023-01-19T02:12:05.363Z,98417.59
2023-01-19T02:17:08.782Z,98420.47
2023-01-19T02:22:39.951Z,98414.09
2023-01-19T02:27:43.540Z,98432.88
2023-01-19T02:32:46.937Z,98427.94
2023-01-19T02:37:53.296Z,98413.94
2023-01-19T02:43:00.045Z,98417.22
2023-01-19T02:48:03.986Z,98424.88
2023-01-19T02:53:10.736Z,98420.34
2023-01-19T02:58:27.679Z,98425.69
2023-01-19T03:03:40.515Z,98423.63
2023-01-19T03:08:59.202Z,98432.28
2023-01-19T03:14:12.465Z,98444.44
2023-01-19T03:19:26.606Z,98433.75
2023-01-19T03:24:34.491Z,98435.38
2023-01-19T03:29:42.447Z,98442.38
2023-01-19T03:34:50.077Z,98453.50
2023-01-19T03:39:53.459Z,98452.28
2023-01-19T03:45:00.281Z,98462.97
2023-01-19T03:50:11.254Z,98460.31
2023-01-19T03:55:14.482Z,98465.00
2023-01-19T04:00:18.291Z,98477.78
2023-01-19T04:05:22.112Z,98487.25
2023-01-19T04:10:25.739Z,98473.66
2023-01-19T04:15:30.773Z,98477.34
2023-01-19T04:20:34.448Z,98483.56
2023-01-19T04:25:38.947Z,98503.31
2023-01-19T04:30:42.168Z,98508.66
2023-01-19T04:35:45.910Z,98505.16
2023-01-19T04:40:50.230Z,98506.19
2023-01-19T04:45:53.345Z,98500.44
2023-01-19T04:50:56.529Z,98505.56
2023-01-19T04:55:59.850Z,98502.47
2023-01-19T05:01:07.084Z,98495.91
2023-01-19T05:06:10.340Z,98490.94
2023-01-19T05:11:13.729Z,98504.78
2023-01-19T05:16:18.555Z,98496.97
2023-01-19T05:21:21.667Z,98501.69
2023-01-19T05:26:24.775Z,98498.84
2023-01-19T05:31:27.915Z,98503.38
2023-01-19T05:36:32.011Z,98503.56
2023-01-19T05:41:36.272Z,98493.25
2023-01-19T05:46:40.594Z,98497.59
2023-01-19T05:51:44.033Z,98501.50
2023-01-19T05:56:47.310Z,98509.13
2023-01-19T06:01:54.584Z,98517.81
2023-01-19T06:06:57.977Z,98521.50
2023-01-19T06:12:01.194Z,98522.38
2023-01-19T06:17:05.048Z,98530.81
2023-01-19T06:22:09.178Z,98524.00
2023-01-19T06:27:12.605Z,98530.91
2023-01-19T06:32:16.005Z,98531.97
2023-01-19T06:37:19.167Z,98532.22
2023-01-19T06:42:22.437Z,98534.94
2023-01-19T06:47:26.755Z,98536.38
2023-01-19T06:52:29.901Z,98534.50
2023-01-19T06:57:32.892Z,98535.16
2023-01-19T07:02:37.182Z,98537.19
2023-01-19T07:07:40.656Z,98542.34
2023-01-19T07:12:43.631Z,98546.66
2023-01-19T07:17:46.977Z,98545.38
2023-01-19T07:22:56.449Z,98552.56
2023-01-19T07:28:01.149Z,98546.19
2023-01-19T07:33:04.482Z,98545.94
2023-01-19T07:38:07.985Z,98541.31
2023-01-19T07:43:11.187Z,98544.16
2023-01-19T07:48:14.307Z,98538.75
2023-01-19T07:53:18.105Z,98527.16
2023-01-19T07:58:21.720Z,98511.44
2023-01-19T08:03:24.855Z,98510.38
2023-01-19T08:08:29.484Z,98498.19
2023-01-19T08:13:32.667Z,98490.06
2023-01-19T08:18:36.508Z,98479.69
2023-01-19T08:23:39.873Z,98477.81
2023-01-19T08:28:43.280Z,98464.72
2023-01-19T08:33:46.261Z,98447.31
2023-01-19T08:38:49.579Z,98438.16
2023-01-19T08:43:54.663Z,98436.84
2023-01-19T08:48:58.655Z,98429.53
2023-01-19T08:54:01.824Z,98416.03
2023-01-19T08:59:09.762Z,98423.59
2023-01-19T09:04:13.295Z,98405.94
2023-01-19T09:09:16.329Z,98414.56
2023-01-19T09:14:19.937Z,98415.22
2023-01-19T09:19:23.520Z,98410.88
2023-01-19T09:24:26.986Z,98396.91
2023-01-19T09:29:30.474Z,98403.97
2023-01-19T09:34:33.346Z,98390.66
2023-01-19T09:39:37.726Z,98380.28
2023-01-19T09:44:43.907Z,98373.06
2023-01-19T09:49:55.664Z,98348.50
2023-01-19T09:54:59.236Z,98353.06
2023-01-19T10:00:03.406Z,98339.25
2023-01-19T10:05:34.667Z,98333.75
2023-01-19T10:10:41.780Z,98313.00
2023-01-19T10:15:59.718Z,98300.47
2023-01-19T10:21:14.829Z,98298.22
2023-01-19T10:26:30.112Z,98284.41
2023-01-19T10:31:36.346Z,98279.94
2023-01-19T10:36:41.170Z,98264.72
2023-01-19T10:41:53.731Z,98266.13
2023-01-19T10:46:59.951Z,98260.63
2023-01-19T10:52:06.151Z,98257.28
2023-01-19T10:57:11.950Z,98256.44
2023-01-19T11:02:26.930Z,98252.91
2023-01-19T11:07:32.780Z,98250.06
2023-01-19T11:12:43.488Z,98246.41
2023-01-19T11:17:47.904Z,98252.72
2023-01-19T11:23:29.040Z,98246.94
2023-01-19T11:28:44.990Z,98237.38
2023-01-19T11:33:50.952Z,98236.31
2023-01-19T11:38:56.699Z,98244.28
2023-01-19T11:44:35.366Z,98233.88
2023-01-19T11:50:13.775Z,98233.72
2023-01-19T11:55:46.664Z,98224.38
2023-01-19T12:01:19.868Z,98220.09
2023-01-19T12:06:32.408Z,98219.03
2023-01-19T12:12:04.847Z,98212.63
2023-01-19T12:17:16.662Z,98215.59
2023-01-19T12:22:20.893Z,98205.38
2023-01-19T12:27:46.561Z,98214.63
2023-01-19T12:32:49.912Z,98212.97
2023-01-19T12:37:53.449Z,98207.56
2023-01-19T12:42:59.118Z,98214.69
2023-01-19T12:48:05.181Z,98211.75
2023-01-19T12:53:19.157Z,98196.34
2023-01-19T12:58:25.397Z,98191.28
2023-01-19T13:03:28.444Z,98189.41
2023-01-19T13:08:53.082Z,98179.06
2023-01-19T13:13:58.951Z,98186.63
2023-01-19T13:19:06.530Z,98189.81
2023-01-19T13:24:17.769Z,98181.38
2023-01-19T13:29:32.748Z,98187.13
2023-01-19T13:34:47.166Z,98168.22
2023-01-19T13:39:54.048Z,98150.84
2023-01-19T13:45:01.311Z,98139.41
2023-01-19T13:50:06.647Z,98152.81
2023-01-19T13:55:14.424Z,98142.97
2023-01-19T14:00:26.065Z,98146.66
2023-01-19T14:05:30.658Z,98128.91
2023-01-19T14:10:35.927Z,98130.22
2023-01-19T14:15:39.568Z,98119.81
2023-01-19T14:21:03.279Z,98131.75
2023-01-19T14:26:45.607Z,98140.41
2023-01-19T14:32:05.264Z,98147.97
2023-01-19T14:37:18.469Z,98155.53
2023-01-19T14:42:32.449Z,98165.75
2023-01-19T14:47:39.496Z,98174.84
2023-01-19T14:52:44.394Z,98172.28
2023-01-19T14:57:48.225Z,98181.78
2023-01-19T15:02:51.570Z,98186.72
2023-01-19T15:07:54.557Z,98178.41
2023-01-19T15:12:57.874Z,98176.56
2023-01-19T15:18:04.747Z,98180.75
2023-01-19T15:23:10.989Z,98190.22
2023-01-19T15:28:19.352Z,98192.38
2023-01-19T15:33:27.138Z,98192.13
2023-01-19T15:38:30.319Z,98198.03
2023-01-19T15:43:34.044Z,98197.91
2023-01-19T15:48:37.427Z,98190.31
2023-01-19T15:53:41.106Z,98183.13
2023-01-19T15:58:46.624Z,98185.00
2023-01-19T16:03:50.695Z,98184.19
2023-01-19T16:08:55.316Z,98185.00
2023-01-19T16:13:58.667Z,98184.44
2023-01-19T16:19:02.120Z,98184.28
2023-01-19T16:24:05.344Z,98184.13
2023-01-19T16:29:09.770Z,98178.03
2023-01-19T16:34:13.689Z,98174.94
2023-01-19T16:39:17.294Z,98173.53
2023-01-19T16:44:20.721Z,98176.47
2023-01-19T16:49:28.271Z,98170.72
2023-01-19T16:54:31.773Z,98173.63
2023-01-19T16:59:35.003Z,98169.31
2023-01-19T17:04:38.020Z,98159.88
2023-01-19T17:09:41.110Z,98165.91
2023-01-19T17:14:44.399Z,98159.91
2023-01-19T17:19:47.684Z,98164.28
2023-01-19T17:24:51.882Z,98160.81
2023-01-19T17:29:55.160Z,98171.09
2023-01-19T17:35:01.725Z,98164.47
2023-01-19T17:40:10.352Z,98163.41
2023-01-19T17:45:13.888Z,98170.66
2023-01-19T17:50:17.909Z,98166.78
2023-01-19T17:55:21.340Z,98162.31
2023-01-19T18:00:24.838Z,98157.94
2023-01-19T18:05:28.012Z,98146.31
2023-01-19T18:10:32.377Z,98149.56
2023-01-19T18:15:38.642Z,98141.34
2023-01-19T18:20:41.803Z,98136.56
2023-01-19T18:25:45.030Z,98135.22
2023-01-19T18:30:48.083Z,98136.03
2023-01-19T18:35:51.786Z,98133.34
2023-01-19T18:41:02.147Z,98117.50
2023-01-19T18:46:05.710Z,98120.59
2023-01-19T18:51:14.178Z,98127.16
2023-01-19T18:56:17.583Z,98127.75
2023-01-19T19:01:26.788Z,98123.41
2023-01-19T19:06:30.044Z,98114.97
2023-01-19T19:11:35.475Z,98124.31
2023-01-19T19:16:39.551Z,98122.78
2023-01-19T19:21:43.523Z,98124.13
2023-01-19T19:26:46.762Z,98132.50
2023-01-19T19:31:50.207Z,98126.53
2023-01-19T19:36:54.743Z,98121.03
2023-01-19T19:41:58.053Z,98123.28
2023-01-19T19:47:01.259Z,98127.69
2023-01-19T19:52:04.956Z,98120.09
2023-01-19T19:57:08.170Z,98117.03
2023-01-19T20:02:12.170Z,98112.81
2023-01-19T20:07:17.810Z,98111.38
2023-01-19T20:12:21.416Z,98112.72
2023-01-19T20:17:24.911Z,98103.91
2023-01-19T20:22:28.246Z,98097.81
2023-01-19T20:27:31.172Z,98094.81
2023-01-19T20:32:34.498Z,98087.41
2023-01-19T20:37:38.097Z,98092.66
2023-01-19T20:42:42.708Z,98087.94
2023-01-19T20:47:45.973Z,98083.63
2023-01-19T20:52:48.950Z,98071.69
2023-01-19T20:57:52.395Z,98061.84
2023-01-19T21:02:56.642Z,98051.56
2023-01-19T21:07:59.788Z,98054.69
2023-01-19T21:13:03.189Z,98051.81
2023-01-19T21:18:07.426Z,98053.34
2023-01-19T21:23:11.082Z,98049.66
2023-01-19T21:28:14.583Z,98039.16
2023-01-19T21:33:18.383Z,98036.09
2023-01-19T21:38:22.703Z,98031.22
2023-01-19T21:43:26.127Z,98032.91
2023-01-19T21:48:31.454Z,98026.75
2023-01-19T21:53:34.855Z,98026.81
2023-01-19T21:58:38.534Z,98018.41
2023-01-19T22:03:42.857Z,98015.34
2023-01-19T22:08:46.999Z,98002.41
2023-01-19T22:13:50.312Z,98003.44
2023-01-19T22:18:54.693Z,98005.28
2023-01-19T22:23:59.840Z,97998.84
2023-01-19T22:29:04.272Z,97992.78
2023-01-19T22:34:07.440Z,97992.38
2023-01-19T22:39:12.245Z,97987.44
2023-01-19T22:44:20.679Z,97979.63
2023-01-19T22:49:23.767Z,97970.53
2023-01-19T22:54:26.925Z,97961.59
2023-01-19T22:59:30.245Z,97943.47
2023-01-19T23:04:33.894Z,97959.50
2023-01-19T23:09:38.184Z,97952.28
2023-01-19T23:14:41.464Z,97946.28
2023-01-19T23:19:44.491Z,97951.94
2023-01-19T23:24:47.672Z,97955.25
2023-01-19T23:29:50.791Z,97939.13
2023-01-19T23:34:54.220Z,97943.03
2023-01-19T23:39:57.291Z,97942.00
2023-01-19T23:45:00.513Z,97934.78
2023-01-19T23:50:05.727Z,97947.97
2023-01-19T23:55:09.464Z,97945.72
